Time;durP1;ratioP1;P1;durP2;ratioP2;P2;SDS_P1;SDS_P2;PMS_P1;PMS_P2;Temp;Humidity;BMP_temperature;BMP_pressure;BME280_temperature;BME280_humidity;BME280_pressure;Samples;Min_cycle;Max_cycle;Signal;HPM_P1;HPM_P2
2022/05/08 00:01:03;;;;;;;17.02;11.40;;;13.70;99.90;;;;;;4951658;28;20043;-77
2022/05/08 00:03:29;;;;;;;16.33;10.70;;;13.70;99.90;;;;;;4971716;28;20046;-77
2022/05/08 00:05:55;;;;;;;15.45;10.20;;;13.60;99.90;;;;;;4970824;28;20384;-77
2022/05/08 00:08:20;;;;;;;14.40;9.52;;;13.70;99.90;;;;;;4985763;28;20120;-77
2022/05/08 00:10:46;;;;;;;13.63;8.05;;;13.70;99.90;;;;;;4985711;28;20029;-77
2022/05/08 00:13:12;;;;;;;8.98;6.82;;;13.60;99.90;;;;;;4971864;28;20779;-77
2022/05/08 00:15:37;;;;;;;9.80;6.25;;;13.50;99.90;;;;;;4986894;28;20040;-77
2022/05/08 00:18:03;;;;;;;10.15;7.03;;;13.50;99.90;;;;;;4978579;28;20393;-77
2022/05/08 00:20:28;;;;;;;10.88;6.68;;;13.50;99.90;;;;;;4955853;28;20620;-77
2022/05/08 00:22:54;;;;;;;8.75;6.03;;;13.50;99.90;;;;;;4961843;28;20121;-77
2022/05/08 00:25:19;;;;;;;9.20;6.55;;;13.50;99.90;;;;;;4976634;28;20026;-77
2022/05/08 00:27:45;;;;;;;13.52;6.80;;;13.50;99.90;;;;;;4988239;28;20485;-77
2022/05/08 00:30:11;;;;;;;10.77;6.43;;;13.40;99.90;;;;;;4962533;28;20034;-77
2022/05/08 00:32:36;;;;;;;15.40;7.25;;;13.40;99.90;;;;;;4979260;28;20441;-77
2022/05/08 00:35:02;;;;;;;11.27;5.88;;;13.30;99.90;;;;;;4997792;28;20136;-77
2022/05/08 00:37:28;;;;;;;13.95;5.75;;;13.30;99.90;;;;;;4982473;28;20057;-77
2022/05/08 00:39:53;;;;;;;9.60;5.30;;;13.30;99.90;;;;;;4999750;28;20125;-77
2022/05/08 00:42:19;;;;;;;10.00;5.07;;;13.20;99.90;;;;;;4987076;28;20029;-77
2022/05/08 00:44:44;;;;;;;9.95;5.53;;;13.10;99.90;;;;;;4987010;28;20044;-77
2022/05/08 00:47:10;;;;;;;9.05;5.47;;;13.10;99.90;;;;;;4971837;28;20030;-76
2022/05/08 00:49:35;;;;;;;8.60;4.95;;;13.00;99.90;;;;;;4969884;28;20030;-75
2022/05/08 00:52:01;;;;;;;8.63;5.22;;;13.00;99.90;;;;;;4969745;28;20042;-75
2022/05/08 00:54:26;;;;;;;7.68;4.65;;;13.00;99.90;;;;;;4969702;28;20116;-76
2022/05/08 00:56:53;;;;;;;13.45;6.15;;;13.00;99.90;;;;;;4952556;28;20022;-76
2022/05/08 00:59:19;;;;;;;11.20;6.03;;;12.80;99.90;;;;;;4970939;28;20045;-75
2022/05/08 01:01:44;;;;;;;9.02;5.68;;;12.70;99.90;;;;;;4971112;28;20030;-76
2022/05/08 01:04:10;;;;;;;12.85;6.10;;;12.80;99.90;;;;;;4997928;28;20083;-75
2022/05/08 01:06:35;;;;;;;8.13;5.78;;;12.70;99.90;;;;;;4983031;28;20022;-75
2022/05/08 01:09:01;;;;;;;10.98;6.82;;;12.70;99.90;;;;;;4985215;28;20030;-75
2022/05/08 01:11:26;;;;;;;13.30;6.85;;;12.70;99.90;;;;;;4975917;28;20038;-76
2022/05/08 01:13:52;;;;;;;10.27;6.93;;;12.50;99.90;;;;;;4986047;28;20529;-75
2022/05/08 01:16:18;;;;;;;15.38;7.90;;;12.60;99.90;;;;;;4984759;28;20026;-75
2022/05/08 01:18:45;;;;;;;9.73;6.07;;;12.50;99.90;;;;;;4970265;28;20033;-76
2022/05/08 01:21:13;;;;;;;10.38;6.60;;;12.50;99.90;;;;;;4966654;28;20120;-76
2022/05/08 01:23:39;;;;;;;11.35;6.85;;;12.40;99.90;;;;;;4971062;28;20030;-75
2022/05/08 01:26:04;;;;;;;11.85;7.28;;;12.30;99.90;;;;;;4972602;28;20045;-75
2022/05/08 01:28:30;;;;;;;16.83;7.30;;;12.30;99.90;;;;;;4968662;28;20030;-75
2022/05/08 01:30:56;;;;;;;12.52;8.10;;;12.20;99.90;;;;;;4973758;28;20040;-75
2022/05/08 01:33:22;;;;;;;11.32;7.10;;;12.10;99.90;;;;;;4985118;28;20069;-75
2022/05/08 01:35:49;;;;;;;10.77;6.88;;;12.10;99.90;;;;;;4954326;28;20059;-75
2022/05/08 01:38:16;;;;;;;12.20;7.43;;;12.10;99.90;;;;;;4983843;28;20078;-75
2022/05/08 01:40:43;;;;;;;16.70;7.45;;;12.10;99.90;;;;;;4970070;28;20092;-75
2022/05/08 01:43:10;;;;;;;12.43;7.13;;;12.10;99.90;;;;;;4984836;28;20337;-75
2022/05/08 01:45:37;;;;;;;12.45;7.25;;;12.10;99.90;;;;;;4985093;28;20030;-75
2022/05/08 01:50:47;;;;;;;14.05;6.88;;;12.10;99.90;;;;;;4991403;28;20037;-75
2022/05/08 01:53:13;;;;;;;16.02;8.38;;;11.90;99.90;;;;;;4985685;28;20022;-75
2022/05/08 01:55:38;;;;;;;13.93;8.10;;;11.80;99.90;;;;;;4986265;28;20033;-75
2022/05/08 01:58:04;;;;;;;13.25;8.15;;;11.70;99.90;;;;;;4987493;28;20065;-75
2022/05/08 02:00:30;;;;;;;12.73;7.53;;;11.60;99.90;;;;;;4989101;28;20448;-75
2022/05/08 02:02:58;;;;;;;13.40;7.82;;;11.50;99.90;;;;;;4972209;28;20030;-75
2022/05/08 02:05:24;;;;;;;14.15;7.40;;;11.50;99.90;;;;;;4987566;28;20045;-75
2022/05/08 02:07:49;;;;;;;12.77;8.73;;;11.40;99.90;;;;;;4971292;28;20472;-75
2022/05/08 02:10:16;;;;;;;15.63;8.02;;;11.30;99.90;;;;;;4957249;28;20052;-76
2022/05/08 02:12:42;;;;;;;14.68;8.68;;;11.40;99.90;;;;;;4988899;28;20056;-75
2022/05/08 02:15:09;;;;;;;14.85;8.90;;;11.40;99.90;;;;;;4972295;28;20062;-76
2022/05/08 02:17:35;;;;;;;12.50;8.75;;;11.30;99.90;;;;;;4972574;28;20144;-75
2022/05/08 02:20:00;;;;;;;12.80;8.52;;;11.30;99.90;;;;;;4983005;28;20149;-75
2022/05/08 02:22:26;;;;;;;17.60;9.75;;;11.30;99.90;;;;;;4986376;28;20040;-75
2022/05/08 02:24:52;;;;;;;16.17;8.95;;;11.20;99.90;;;;;;4986037;28;20124;-75
2022/05/08 02:27:17;;;;;;;17.65;9.88;;;11.00;99.90;;;;;;4980318;28;20088;-75
2022/05/08 02:29:49;;;;;;;13.15;10.32;;;11.00;99.90;;;;;;4958358;28;20064;-75
2022/05/08 02:32:14;;;;;;;16.50;10.57;;;11.00;99.90;;;;;;4981225;28;20031;-74
2022/05/08 02:34:40;;;;;;;19.33;11.48;;;10.90;99.90;;;;;;4990082;28;20120;-74
2022/05/08 02:37:06;;;;;;;17.30;11.65;;;11.00;99.90;;;;;;4986576;28;20045;-74
2022/05/08 02:39:31;;;;;;;16.60;11.82;;;10.80;99.90;;;;;;4994968;28;20078;-74
2022/05/08 02:41:57;;;;;;;19.45;10.63;;;10.70;99.90;;;;;;4957063;28;20415;-74
2022/05/08 02:44:22;;;;;;;18.75;12.48;;;10.70;99.90;;;;;;4969442;28;20117;-74
2022/05/08 02:46:48;;;;;;;19.67;14.70;;;10.80;99.90;;;;;;4986605;28;20022;-75
2022/05/08 02:49:13;;;;;;;22.17;14.00;;;10.70;99.90;;;;;;4986870;28;20524;-74
2022/05/08 02:51:39;;;;;;;23.40;16.05;;;10.70;99.90;;;;;;4972457;28;20030;-74
2022/05/08 02:54:04;;;;;;;22.55;14.20;;;10.80;99.90;;;;;;4985778;28;20117;-74
2022/05/08 02:59:15;;;;;;;21.52;14.10;;;10.80;99.90;;;;;;4971583;28;20088;-74
2022/05/08 03:01:41;;;;;;;20.23;13.48;;;10.70;99.90;;;;;;4987237;28;20145;-74
2022/05/08 03:04:06;;;;;;;20.75;13.30;;;10.70;99.90;;;;;;4968783;28;20508;-74
2022/05/08 03:06:32;;;;;;;21.52;13.10;;;10.80;99.90;;;;;;4969627;28;20034;-74
2022/05/08 03:08:58;;;;;;;21.98;13.40;;;10.70;99.90;;;;;;4969804;28;20019;-75
2022/05/08 03:11:26;;;;;;;25.33;13.13;;;10.80;99.90;;;;;;4968785;28;20076;-75
2022/05/08 03:13:52;;;;;;;21.85;16.23;;;10.80;99.90;;;;;;4988717;28;20034;-74
2022/05/08 03:16:18;;;;;;;23.60;16.10;;;10.80;99.90;;;;;;4970197;28;20465;-74
2022/05/08 03:18:45;;;;;;;30.17;16.90;;;10.70;99.90;;;;;;4979284;28;20030;-74
2022/05/08 03:21:13;;;;;;;27.13;16.02;;;10.60;99.90;;;;;;4988811;28;20049;-74
2022/05/08 03:23:39;;;;;;;29.63;19.02;;;10.60;99.90;;;;;;4984861;28;20030;-74
2022/05/08 03:26:05;;;;;;;29.30;19.33;;;10.60;99.90;;;;;;4986154;28;20096;-74
2022/05/08 03:28:31;;;;;;;34.58;21.30;;;10.50;99.90;;;;;;4968984;28;20034;-74
2022/05/08 03:30:57;;;;;;;40.08;22.55;;;10.50;99.90;;;;;;4950168;28;20041;-74
2022/05/08 03:33:23;;;;;;;35.60;22.58;;;10.60;99.90;;;;;;4967048;28;20373;-74
2022/05/08 03:35:48;;;;;;;37.53;22.25;;;10.50;99.90;;;;;;4979452;28;20034;-74
2022/05/08 03:38:14;;;;;;;37.13;21.23;;;10.50;99.90;;;;;;4968055;28;20038;-74
2022/05/08 03:40:39;;;;;;;30.63;20.83;;;10.50;99.90;;;;;;4971445;28;21742;-74
2022/05/08 03:43:05;;;;;;;31.15;20.77;;;10.40;99.90;;;;;;4985910;28;20440;-74
2022/05/08 03:45:31;;;;;;;29.63;19.05;;;10.40;99.90;;;;;;4995527;28;20034;-74
2022/05/08 03:47:59;;;;;;;32.95;18.45;;;10.40;99.90;;;;;;4964826;28;20573;-74
2022/05/08 03:50:25;;;;;;;26.88;16.17;;;10.30;99.90;;;;;;4968065;28;20045;-74
2022/05/08 03:52:50;;;;;;;22.83;15.63;;;10.40;99.90;;;;;;4969675;28;20485;-74
2022/05/08 03:55:16;;;;;;;26.95;16.15;;;10.40;99.90;;;;;;4966672;28;20041;-74
2022/05/08 03:57:42;;;;;;;27.48;16.15;;;10.40;99.90;;;;;;4969947;28;20034;-74
2022/05/08 04:00:09;;;;;;;27.63;15.43;;;10.40;99.90;;;;;;4977319;28;20057;-74
2022/05/08 04:02:34;;;;;;;28.35;15.25;;;10.30;99.90;;;;;;4953876;28;21216;-74
2022/05/08 04:05:00;;;;;;;27.63;15.38;;;10.40;99.90;;;;;;4964243;28;20609;-74
2022/05/08 04:07:26;;;;;;;27.83;15.15;;;10.30;99.90;;;;;;4983929;28;20589;-74
2022/05/08 04:09:51;;;;;;;25.25;14.25;;;10.30;99.90;;;;;;4983619;28;20038;-74
2022/05/08 04:12:17;;;;;;;22.60;13.73;;;10.20;99.90;;;;;;4980557;28;20030;-74
2022/05/08 04:14:42;;;;;;;23.45;12.52;;;10.30;99.90;;;;;;4970430;28;20030;-74
2022/05/08 04:17:08;;;;;;;27.15;14.30;;;10.20;99.90;;;;;;4982171;28;20030;-74
2022/05/08 04:19:33;;;;;;;24.52;14.98;;;10.30;99.90;;;;;;4981154;28;20046;-74
2022/05/08 04:24:43;;;;;;;27.27;13.38;;;10.20;99.90;;;;;;4984894;28;20033;-74
2022/05/08 04:27:09;;;;;;;24.52;13.07;;;10.30;99.90;;;;;;4983024;28;20069;-74
2022/05/08 04:29:34;;;;;;;22.23;11.57;;;10.30;99.90;;;;;;4984895;28;20029;-74
2022/05/08 04:32:00;;;;;;;26.33;11.82;;;10.20;99.90;;;;;;4980716;28;20552;-74
2022/05/08 04:34:25;;;;;;;21.52;10.75;;;10.30;99.90;;;;;;4971502;28;20038;-74
2022/05/08 04:36:51;;;;;;;25.77;11.93;;;10.30;99.90;;;;;;4983498;28;20041;-74
2022/05/08 04:39:17;;;;;;;20.33;10.43;;;10.30;99.90;;;;;;4984407;28;20443;-74
2022/05/08 04:41:43;;;;;;;23.17;9.82;;;10.30;99.90;;;;;;4954305;28;20430;-74
2022/05/08 04:44:08;;;;;;;25.75;10.82;;;10.30;99.90;;;;;;4968893;28;20118;-74
2022/05/08 04:46:34;;;;;;;22.70;10.07;;;10.40;99.90;;;;;;4967310;28;20089;-74
2022/05/08 04:49:00;;;;;;;20.23;10.23;;;10.40;99.90;;;;;;4968713;28;20429;-74
2022/05/08 04:51:25;;;;;;;27.08;10.00;;;10.40;99.90;;;;;;4979957;28;20039;-74
2022/05/08 04:53:51;;;;;;;27.27;10.60;;;10.40;99.90;;;;;;4964289;28;20084;-74
2022/05/08 04:56:16;;;;;;;30.67;10.13;;;10.50;99.90;;;;;;4984406;28;20050;-74
2022/05/08 04:58:42;;;;;;;27.20;9.60;;;10.50;99.90;;;;;;4985536;28;20034;-74
2022/05/08 05:01:07;;;;;;;24.45;8.75;;;10.50;99.90;;;;;;4987022;28;20429;-74
2022/05/08 05:03:33;;;;;;;27.92;7.80;;;10.60;99.90;;;;;;4989646;28;20042;-74
2022/05/08 05:05:58;;;;;;;20.60;6.78;;;10.60;99.90;;;;;;4971948;28;20081;-74
2022/05/08 05:08:24;;;;;;;29.08;7.95;;;10.60;99.90;;;;;;4985291;28;20124;-74
2022/05/08 05:10:49;;;;;;;19.92;7.35;;;10.60;99.90;;;;;;4975469;28;20421;-74
2022/05/08 05:13:15;;;;;;;23.42;7.75;;;10.70;99.90;;;;;;4984682;28;20027;-74
2022/05/08 05:15:41;;;;;;;21.30;6.65;;;10.80;99.90;;;;;;4972940;28;20037;-74
2022/05/08 05:18:06;;;;;;;20.35;6.00;;;10.80;99.90;;;;;;4984260;28;20056;-74
2022/05/08 05:20:32;;;;;;;24.15;6.03;;;10.90;99.90;;;;;;4973069;28;20045;-74
2022/05/08 05:23:01;;;;;;;21.80;6.13;;;11.00;99.90;;;;;;4972374;28;20485;-74
2022/05/08 05:25:27;;;;;;;27.05;6.05;;;11.00;99.90;;;;;;4969547;28;20034;-74
2022/05/08 05:27:53;;;;;;;28.15;7.35;;;11.10;99.90;;;;;;4975687;28;20040;-74
2022/05/08 05:30:18;;;;;;;20.45;6.18;;;11.10;99.90;;;;;;4987946;28;20155;-74
2022/05/08 05:32:44;;;;;;;25.10;6.63;;;11.20;99.90;;;;;;4989446;28;20485;-74
2022/05/08 05:35:10;;;;;;;21.90;5.68;;;11.30;99.90;;;;;;4988851;28;20042;-74
2022/05/08 05:37:35;;;;;;;23.08;6.97;;;11.40;99.90;;;;;;4972914;28;20084;-75
2022/05/08 05:40:01;;;;;;;19.38;6.15;;;11.50;99.90;;;;;;4985963;28;20061;-75
2022/05/08 05:42:27;;;;;;;27.35;6.60;;;11.60;99.90;;;;;;4988225;28;20491;-74
2022/05/08 05:44:52;;;;;;;23.60;6.10;;;11.70;99.90;;;;;;4971262;28;20026;-75
2022/05/08 05:50:01;;;;;;;23.30;6.47;;;12.00;99.90;;;;;;4988100;28;20032;-75
2022/05/08 05:52:28;;;;;;;21.45;5.65;;;12.10;99.90;;;;;;4985974;28;20037;-75
2022/05/08 05:54:53;;;;;;;20.58;5.28;;;12.20;99.90;;;;;;4989016;28;20425;-75
2022/05/08 05:57:19;;;;;;;21.67;5.57;;;12.30;99.90;;;;;;4987457;28;20025;-75
2022/05/08 05:59:45;;;;;;;22.80;6.68;;;12.40;99.90;;;;;;4980733;28;20041;-75
2022/05/08 06:02:11;;;;;;;20.38;5.30;;;12.50;99.90;;;;;;4978767;28;20080;-75
2022/05/08 06:04:36;;;;;;;19.02;5.85;;;12.50;99.90;;;;;;4954754;28;20437;-75
2022/05/08 06:07:02;;;;;;;23.70;6.15;;;12.60;99.90;;;;;;4970916;28;20428;-75
2022/05/08 06:09:28;;;;;;;23.02;6.93;;;12.60;99.90;;;;;;4951961;28;20502;-75
2022/05/08 06:11:53;;;;;;;29.95;6.63;;;12.60;99.90;;;;;;4997899;28;20126;-75
2022/05/08 06:14:19;;;;;;;17.77;5.07;;;12.70;99.90;;;;;;4957401;28;20485;-75
2022/05/08 06:16:45;;;;;;;16.77;5.13;;;12.70;99.90;;;;;;4988783;28;20038;-75
2022/05/08 06:19:10;;;;;;;22.98;5.97;;;12.80;99.90;;;;;;4987158;28;20037;-75
2022/05/08 06:21:36;;;;;;;23.05;6.05;;;12.90;99.90;;;;;;4982514;28;20036;-75
2022/05/08 06:24:02;;;;;;;21.92;6.18;;;12.90;99.90;;;;;;4983822;28;20365;-75
2022/05/08 06:26:27;;;;;;;28.17;7.15;;;13.00;99.90;;;;;;4954653;28;20384;-75
2022/05/08 06:28:55;;;;;;;20.60;5.85;;;13.00;99.90;;;;;;4951447;28;20022;-75
2022/05/08 06:31:21;;;;;;;20.30;5.40;;;13.10;99.90;;;;;;4968635;28;20044;-75
2022/05/08 06:33:46;;;;;;;22.20;6.32;;;13.10;99.90;;;;;;4981728;28;20026;-75
2022/05/08 06:36:12;;;;;;;18.15;5.63;;;13.10;99.90;;;;;;4972160;28;20034;-75
2022/05/08 06:38:38;;;;;;;23.98;6.75;;;13.20;99.90;;;;;;4982590;28;20031;-75
2022/05/08 06:41:03;;;;;;;18.90;6.78;;;13.30;99.90;;;;;;4981455;28;20073;-75
2022/05/08 06:43:29;;;;;;;21.35;6.53;;;13.20;99.90;;;;;;4955763;28;20544;-75
2022/05/08 06:45:54;;;;;;;22.50;5.30;;;13.40;99.90;;;;;;4989120;28;20042;-75
2022/05/08 06:48:20;;;;;;;18.67;5.65;;;13.40;99.90;;;;;;4983780;28;20037;-75
2022/05/08 06:50:45;;;;;;;29.13;5.15;;;13.40;99.90;;;;;;4966596;28;20057;-75
2022/05/08 06:53:12;;;;;;;12.95;4.22;;;13.60;99.90;;;;;;4971939;28;20101;-75
2022/05/08 06:55:37;;;;;;;25.50;5.05;;;13.70;99.90;;;;;;4954133;28;20129;-75
2022/05/08 06:58:03;;;;;;;19.33;4.30;;;13.80;99.90;;;;;;4989435;28;20138;-75
2022/05/08 07:03:12;;;;;;;16.73;4.45;;;13.90;99.90;;;;;;4991036;28;20072;-75
2022/05/08 07:05:43;;;;;;;22.30;4.85;;;14.00;99.90;;;;;;4984017;28;20102;-76
2022/05/08 07:08:08;;;;;;;14.10;3.35;;;14.00;99.90;;;;;;4970739;28;20136;-76
2022/05/08 07:10:34;;;;;;;20.42;5.38;;;14.00;99.90;;;;;;4970153;28;20505;-76
2022/05/08 07:12:59;;;;;;;14.10;4.03;;;14.00;99.90;;;;;;4986840;28;20493;-76
2022/05/08 07:15:25;;;;;;;16.75;3.65;;;14.00;99.90;;;;;;4967824;28;20048;-76
2022/05/08 07:17:50;;;;;;;18.38;3.83;;;14.00;99.90;;;;;;4986693;28;20042;-76
2022/05/08 07:20:16;;;;;;;15.05;4.00;;;14.10;99.90;;;;;;4982256;28;20049;-76
2022/05/08 07:22:41;;;;;;;14.68;3.85;;;14.20;99.90;;;;;;4986372;28;20033;-76
2022/05/08 07:25:07;;;;;;;19.25;4.03;;;14.30;99.90;;;;;;4970083;28;20378;-76
2022/05/08 07:27:36;;;;;;;22.08;4.10;;;14.50;99.90;;;;;;4985920;28;20037;-76
2022/05/08 07:30:03;;;;;;;20.65;5.18;;;14.60;99.90;;;;;;4987009;28;20026;-76
2022/05/08 07:32:28;;;;;;;14.02;4.10;;;14.70;99.90;;;;;;4983631;28;20034;-76
2022/05/08 07:37:39;;;;;;;18.08;4.20;;;15.10;99.90;;;;;;4990233;28;20080;-76
2022/05/08 07:40:05;;;;;;;19.17;3.80;;;15.30;99.90;;;;;;4967290;28;20045;-76
2022/05/08 07:42:31;;;;;;;13.48;3.50;;;15.50;99.90;;;;;;4967665;28;20501;-76
2022/05/08 07:44:56;;;;;;;18.33;4.20;;;15.60;99.90;;;;;;5002409;28;20033;-76
2022/05/08 07:47:22;;;;;;;18.08;4.40;;;15.80;99.90;;;;;;5000806;28;20398;-76
2022/05/08 07:49:47;;;;;;;17.83;5.38;;;16.00;99.90;;;;;;4986653;28;20049;-76
2022/05/08 07:52:13;;;;;;;19.67;5.13;;;16.30;99.90;;;;;;4986147;28;20034;-76
2022/05/08 07:54:38;;;;;;;27.15;5.57;;;16.50;99.90;;;;;;4972920;28;20425;-76
2022/05/08 07:57:04;;;;;;;20.23;4.70;;;16.90;99.90;;;;;;4985280;28;20026;-76
2022/05/08 07:59:29;;;;;;;21.45;5.22;;;17.20;99.90;;;;;;4969647;28;20065;-76
2022/05/08 08:01:55;;;;;;;17.08;5.10;;;17.30;99.90;;;;;;4988337;28;20128;-76
2022/05/08 08:04:20;;;;;;;19.42;4.72;;;17.40;99.90;;;;;;5000855;28;20478;-76
2022/05/08 08:06:46;;;;;;;21.98;5.07;;;17.50;99.90;;;;;;4985069;28;20099;-76
2022/05/08 08:09:12;;;;;;;18.17;5.28;;;17.40;99.90;;;;;;4970447;28;20131;-76
2022/05/08 08:11:38;;;;;;;17.48;5.05;;;17.40;99.90;;;;;;4969896;28;20538;-77
2022/05/08 08:14:04;;;;;;;21.58;5.47;;;17.40;99.90;;;;;;4985071;28;20022;-76
2022/05/08 08:16:30;;;;;;;18.23;4.95;;;17.60;99.90;;;;;;4970173;28;20061;-76
2022/05/08 08:18:57;;;;;;;21.88;5.63;;;17.60;99.90;;;;;;4985447;28;20030;-77
2022/05/08 08:21:23;;;;;;;20.80;4.97;;;17.60;99.90;;;;;;4982324;28;20038;-77
2022/05/08 08:23:49;;;;;;;15.38;4.07;;;17.60;99.90;;;;;;4983590;28;20557;-76
2022/05/08 08:26:14;;;;;;;19.17;5.00;;;17.70;99.90;;;;;;4970022;28;20058;-77
2022/05/08 08:28:40;;;;;;;18.60;5.45;;;17.70;99.90;;;;;;4982118;28;20117;-77
2022/05/08 08:31:07;;;;;;;19.88;5.00;;;18.00;99.90;;;;;;4968916;28;20730;-76
2022/05/08 08:33:32;;;;;;;16.17;5.05;;;18.10;99.90;;;;;;4971445;28;20045;-77
2022/05/08 08:35:58;;;;;;;20.85;5.50;;;18.20;99.90;;;;;;4988846;28;20385;-77
2022/05/08 08:38:23;;;;;;;17.08;5.28;;;18.30;99.90;;;;;;4991858;28;20105;-77
2022/05/08 08:40:49;;;;;;;20.48;4.30;;;18.40;99.90;;;;;;4974698;28;20459;-77
2022/05/08 08:43:18;;;;;;;16.33;5.05;;;18.60;99.90;;;;;;4956116;28;20035;-77
2022/05/08 08:48:30;;;;;;;18.25;5.43;;;18.80;99.90;;;;;;4986426;28;20066;-77
2022/05/08 08:50:56;;;;;;;16.05;4.88;;;19.10;99.90;;;;;;4986363;28;20030;-78
2022/05/08 08:53:22;;;;;;;18.23;4.72;;;19.10;99.90;;;;;;4957233;28;20038;-78
2022/05/08 08:55:49;;;;;;;17.45;4.10;;;19.50;99.90;;;;;;4975756;28;20037;-78
2022/05/08 08:58:16;;;;;;;15.07;4.18;;;19.70;99.90;;;;;;4973951;28;20038;-78
2022/05/08 09:00:42;;;;;;;8.20;3.35;;;19.90;99.40;;;;;;4971255;28;20049;-78
2022/05/08 09:03:07;;;;;;;18.80;4.68;;;20.10;99.50;;;;;;4990402;28;20038;-78
2022/05/08 09:05:33;;;;;;;14.68;4.40;;;20.30;98.60;;;;;;4973475;28;20034;-78
2022/05/08 09:08:00;;;;;;;16.83;4.57;;;20.50;97.70;;;;;;4988968;28;20042;-78
2022/05/08 09:10:27;;;;;;;14.68;4.68;;;20.60;99.40;;;;;;4988534;28;20483;-78
2022/05/08 09:12:52;;;;;;;11.35;4.05;;;21.00;98.10;;;;;;4990525;28;20048;-78
2022/05/08 09:15:19;;;;;;;15.00;4.38;;;21.20;98.00;;;;;;5001823;28;20477;-78
2022/05/08 09:17:45;;;;;;;16.17;4.60;;;21.20;97.30;;;;;;5003710;28;20041;-78
2022/05/08 09:20:30;;;;;;;14.45;4.43;;;21.50;96.50;;;;;;4974915;28;20042;-78
2022/05/08 09:23:06;;;;;;;11.45;3.97;;;21.80;94.30;;;;;;4973376;28;20038;-78
2022/05/08 09:25:48;;;;;;;18.15;4.35;;;21.90;93.40;;;;;;4971818;28;20095;-78
2022/05/08 09:28:13;;;;;;;20.70;4.57;;;21.90;92.30;;;;;;4968068;28;20037;-78
2022/05/08 09:30:58;;;;;;;15.32;4.60;;;22.00;92.40;;;;;;4988647;28;20134;-78
2022/05/08 09:33:24;;;;;;;12.35;3.63;;;22.00;90.70;;;;;;4970676;28;20046;-78
2022/05/08 09:35:50;;;;;;;13.60;3.63;;;22.00;89.30;;;;;;4989601;28;20030;-78
2022/05/08 09:38:16;;;;;;;11.70;4.00;;;22.00;90.40;;;;;;4984880;28;20500;-78
2022/05/08 09:40:42;;;;;;;12.38;3.67;;;22.00;88.50;;;;;;4972410;28;20485;-78
2022/05/08 09:43:29;;;;;;;10.50;4.00;;;22.00;90.20;;;;;;4972393;28;20033;-78
2022/05/08 09:45:58;;;;;;;13.90;3.72;;;22.00;85.60;;;;;;4978933;28;20548;-78
2022/05/08 09:48:27;;;;;;;15.20;5.40;;;22.20;88.50;;;;;;4983986;28;20434;-78
2022/05/08 09:50:58;;;;;;;13.65;3.88;;;22.20;86.90;;;;;;4983376;28;20052;-78
2022/05/08 09:53:24;;;;;;;12.88;4.10;;;22.30;86.40;;;;;;4987184;28;20038;-78
2022/05/08 09:55:53;;;;;;;12.50;3.58;;;22.40;80.50;;;;;;4985072;28;20508;-78
2022/05/08 09:58:19;;;;;;;18.05;4.18;;;22.50;81.20;;;;;;4984394;28;20023;-78
2022/05/08 10:00:45;;;;;;;16.10;4.38;;;22.50;81.00;;;;;;4973077;28;20045;-78
2022/05/08 10:03:11;;;;;;;14.98;4.32;;;22.70;79.10;;;;;;4969649;28;20034;-78
2022/05/08 10:05:37;;;;;;;10.07;3.40;;;22.90;81.10;;;;;;4973340;28;20030;-78
2022/05/08 10:08:03;;;;;;;12.85;4.28;;;23.00;80.80;;;;;;4966993;28;20057;-79
2022/05/08 10:15:56;;;;;;;13.00;3.72;;;23.20;80.30;;;;;;4986502;28;20405;-79
2022/05/08 10:18:27;;;;;;;11.93;3.33;;;23.20;78.00;;;;;;4968748;28;20503;-79
2022/05/08 10:21:12;;;;;;;12.65;3.17;;;23.40;78.00;;;;;;4986072;28;20275;-79
2022/05/08 10:23:47;;;;;;;10.80;3.23;;;23.40;75.80;;;;;;4968328;28;20041;-79
2022/05/08 10:26:22;;;;;;;13.48;3.47;;;23.50;75.00;;;;;;4967047;28;20644;-79
2022/05/08 10:29:02;;;;;;;11.97;3.53;;;23.40;73.50;;;;;;4987639;28;20596;-79
2022/05/08 10:31:41;;;;;;;12.27;3.70;;;23.30;72.20;;;;;;4998279;28;20069;-79
2022/05/08 10:34:07;;;;;;;11.18;3.30;;;23.20;71.00;;;;;;5001593;28;20045;-79
2022/05/08 10:36:32;;;;;;;9.50;3.60;;;23.10;72.70;;;;;;4954793;28;20035;-79
2022/05/08 10:39:41;;;;;;;9.18;3.03;;;23.30;73.30;;;;;;4970605;28;20041;-79
2022/05/08 10:42:21;;;;;;;14.00;4.18;;;23.50;71.00;;;;;;4997378;28;20252;-79
2022/05/08 10:44:47;;;;;;;11.60;3.55;;;23.70;70.70;;;;;;4986822;28;20029;-79
2022/05/08 10:47:36;;;;;;;10.65;3.33;;;23.70;71.50;;;;;;4971010;28;20030;-79
2022/05/08 10:50:04;;;;;;;7.88;3.17;;;23.80;69.00;;;;;;4981809;28;20346;-80
2022/05/08 10:52:33;;;;;;;11.98;3.58;;;23.90;66.30;;;;;;4968917;28;20060;-79
2022/05/08 10:55:00;;;;;;;10.20;2.90;;;23.80;68.80;;;;;;4984573;28;20473;-80
2022/05/08 10:57:31;;;;;;;14.32;4.00;;;23.70;68.80;;;;;;4951687;28;20035;-80
2022/05/08 10:59:57;;;;;;;9.95;3.00;;;23.70;67.30;;;;;;4953805;28;20032;-80
2022/05/08 11:02:42;;;;;;;13.93;4.18;;;23.70;64.20;;;;;;4970856;28;20030;-80
2022/05/08 11:05:12;;;;;;;11.10;3.33;;;23.70;62.70;;;;;;4347572;28;10001035;-80
2022/05/08 11:07:50;;;;;;;8.65;3.20;;;23.60;61.80;;;;;;4964064;28;20647;-80
2022/05/08 11:10:22;;;;;;;10.95;3.70;;;23.50;61.10;;;;;;4953402;28;20030;-80
2022/05/08 11:13:10;;;;;;;7.47;2.72;;;23.50;62.60;;;;;;4974067;28;20053;-80
2022/05/08 11:15:36;;;;;;;9.88;2.90;;;23.60;62.10;;;;;;4983548;28;20038;-80
2022/05/08 11:18:02;;;;;;;9.90;3.75;;;23.70;59.80;;;;;;4984157;28;20037;-80
2022/05/08 11:20:28;;;;;;;13.00;3.25;;;23.70;62.30;;;;;;4979303;28;20033;-81
2022/05/08 11:22:55;;;;;;;15.68;5.30;;;23.70;63.90;;;;;;4984436;28;20030;-81
2022/05/08 11:25:20;;;;;;;12.45;2.72;;;23.70;60.90;;;;;;4983006;28;20031;-81
2022/05/08 11:27:52;;;;;;;6.32;2.58;;;23.70;62.90;;;;;;4962679;28;20038;-81
2022/05/08 11:30:31;;;;;;;7.05;3.05;;;23.70;64.90;;;;;;4951077;28;20030;-81
2022/05/08 11:38:48;;;;;;;9.73;2.90;;;24.00;63.20;;;;;;4983842;28;20034;-81
2022/05/08 11:41:27;;;;;;;9.63;2.72;;;23.60;59.30;;;;;;4978661;28;20037;-81
2022/05/08 11:43:55;;;;;;;13.50;3.53;;;23.70;60.90;;;;;;4954468;28;20045;-82
2022/05/08 11:46:46;;;;;;;11.63;3.88;;;23.90;59.50;;;;;;4979977;28;20943;-81
2022/05/08 11:49:18;;;;;;;7.43;2.67;;;23.90;57.40;;;;;;4963150;28;20069;-82
2022/05/08 11:51:45;;;;;;;9.10;3.00;;;23.90;61.20;;;;;;4968862;28;20027;-82
2022/05/08 11:54:55;;;;;;;11.20;3.22;;;24.00;60.90;;;;;;4969918;28;20032;-82
2022/05/08 11:57:26;;;;;;;6.35;2.42;;;24.00;56.80;;;;;;4935627;28;20354;-83
2022/05/08 12:00:05;;;;;;;10.63;2.80;;;24.10;58.80;;;;;;4965593;28;20034;-83
2022/05/08 12:02:47;;;;;;;6.55;2.22;;;24.10;60.60;;;;;;4965556;28;20510;-83
2022/05/08 12:05:21;;;;;;;6.47;2.03;;;24.40;60.90;;;;;;4953989;28;20034;-82
2022/05/08 12:07:47;;;;;;;7.63;2.70;;;24.50;62.20;;;;;;4980949;28;20105;-83
2022/05/08 12:10:13;;;;;;;7.65;2.63;;;24.60;58.20;;;;;;4962258;28;20261;-83
2022/05/08 12:12:39;;;;;;;8.65;3.10;;;24.60;57.80;;;;;;4954810;28;20482;-83
2022/05/08 12:15:08;;;;;;;5.57;2.40;;;24.60;56.90;;;;;;4969157;28;20030;-83
2022/05/08 12:17:39;;;;;;;8.18;2.38;;;24.70;59.60;;;;;;4979493;28;20541;-82
2022/05/08 12:20:09;;;;;;;9.93;2.40;;;25.00;57.00;;;;;;4979559;28;20463;-83
2022/05/08 12:22:34;;;;;;;9.13;2.78;;;24.80;56.20;;;;;;4970951;28;20578;-83
2022/05/08 12:25:00;;;;;;;7.05;3.00;;;24.80;54.70;;;;;;4982365;28;20034;-83
2022/05/08 12:27:25;;;;;;;6.53;2.70;;;24.70;54.70;;;;;;4970968;28;20037;-83
2022/05/08 12:29:53;;;;;;;7.35;2.30;;;24.70;52.60;;;;;;4954649;28;20339;-84
2022/05/08 12:32:19;;;;;;;10.68;2.35;;;24.60;56.00;;;;;;4968773;28;20034;-83
2022/05/08 12:34:45;;;;;;;9.10;3.13;;;24.80;55.60;;;;;;4970984;28;20034;-83
2022/05/08 12:37:12;;;;;;;6.05;2.92;;;24.90;53.80;;;;;;4969799;28;20030;-83
2022/05/08 12:39:38;;;;;;;7.97;2.25;;;24.90;57.90;;;;;;4954280;28;20088;-83
2022/05/08 12:42:04;;;;;;;4.43;1.70;;;25.00;55.30;;;;;;4966430;28;20154;-84
2022/05/08 12:44:29;;;;;;;8.45;2.90;;;25.00;56.60;;;;;;4982421;28;20046;-84
2022/05/08 12:46:56;;;;;;;7.32;2.08;;;25.10;57.80;;;;;;4969791;28;20026;-84
2022/05/08 12:49:21;;;;;;;8.55;3.00;;;25.50;58.00;;;;;;4953951;28;20501;-84
2022/05/08 12:51:47;;;;;;;9.50;2.60;;;25.40;57.80;;;;;;4967017;28;20034;-84
2022/05/08 12:54:12;;;;;;;11.25;2.38;;;25.60;58.00;;;;;;4967088;28;20085;-84
2022/05/08 12:56:38;;;;;;;6.10;2.60;;;25.60;58.40;;;;;;4985896;28;20055;-84
2022/05/08 13:01:51;;;;;;;10.32;2.63;;;25.70;55.60;;;;;;4986653;28;20044;-84
2022/05/08 13:04:16;;;;;;;9.43;2.83;;;25.90;53.90;;;;;;4984902;28;20057;-83
2022/05/08 13:06:42;;;;;;;9.45;2.95;;;26.00;55.00;;;;;;4966559;28;20479;-84
2022/05/08 13:09:08;;;;;;;8.32;2.58;;;25.90;54.80;;;;;;4966072;28;20345;-83